Terminal Aerodrome Forecast
Issued by NWS Sterling, VA

Home | Current Version | Previous Version | Text Only | Print | Product List | Glossary On
Versions: 1 2 3 4 5 6 7 8 9 10 11 12 13 14 15
000
FTUS41 KLWX 281100
TAFMRB
TAF
KMRB 281133Z 2812/2912 27012KT P6SM SCT050 BKN090
     FM281400 29012G25KT P6SM SCT050 BKN090
     FM290000 30012KT P6SM BKN050
     FM290300 28008KT P6SM BKN250
     FM290600 29004KT P6SM SCT250=

USA.gov is the U.S. government's official web portal to all federal, state and local government web resources and services.